createdAt,value
2022-09-23T00:02:12.540Z,8.40
2022-09-23T00:04:38.998Z,8.46
2022-09-23T00:07:05.904Z,8.44
2022-09-23T00:09:32.253Z,8.33
2022-09-23T00:11:58.624Z,8.30
2022-09-23T00:14:25.169Z,8.35
2022-09-23T00:16:51.769Z,8.54
2022-09-23T00:19:18.189Z,8.53
2022-09-23T00:21:44.748Z,8.48
2022-09-23T00:24:11.283Z,8.46
2022-09-23T00:26:37.678Z,8.45
2022-09-23T00:29:04.563Z,8.35
2022-09-23T00:31:30.934Z,8.51
2022-09-23T00:33:57.315Z,8.26
2022-09-23T00:36:23.813Z,8.40
2022-09-23T00:38:50.258Z,8.35
2022-09-23T00:41:16.586Z,8.32
2022-09-23T00:43:43.510Z,8.25
2022-09-23T00:46:09.979Z,8.15
2022-09-23T00:48:36.378Z,8.24
2022-09-23T00:51:02.967Z,8.24
2022-09-23T00:53:29.329Z,7.95
2022-09-23T00:55:55.720Z,8.08
2022-09-23T00:58:22.437Z,8.23
2022-09-23T01:00:48.865Z,8.04
2022-09-23T01:03:15.217Z,7.78
2022-09-23T01:05:41.629Z,7.98
2022-09-23T01:08:08.029Z,8.10
2022-09-23T01:10:34.499Z,8.01
2022-09-23T01:13:00.953Z,8.04
2022-09-23T01:15:27.363Z,8.10
2022-09-23T01:17:53.726Z,8.06
2022-09-23T01:20:20.231Z,8.00
2022-09-23T01:22:46.672Z,8.19
2022-09-23T01:25:13.177Z,8.28
2022-09-23T01:27:39.869Z,8.20
2022-09-23T01:30:06.464Z,8.31
2022-09-23T01:32:33.143Z,8.18
2022-09-23T01:34:59.839Z,8.18
2022-09-23T01:37:26.380Z,8.27
2022-09-23T01:39:52.725Z,8.13
2022-09-23T01:42:19.204Z,8.14
2022-09-23T01:44:45.604Z,7.60
2022-09-23T01:47:12.016Z,7.74
2022-09-23T01:49:39.498Z,7.80
2022-09-23T01:52:05.899Z,7.72
2022-09-23T01:54:32.322Z,7.79
2022-09-23T01:56:58.972Z,7.62
2022-09-23T01:59:25.540Z,7.67
2022-09-23T02:01:51.876Z,7.45
2022-09-23T02:04:18.435Z,7.57
2022-09-23T02:06:45.000Z,7.40
2022-09-23T02:09:11.330Z,7.42
2022-09-23T02:11:38.054Z,7.51
2022-09-23T02:14:04.488Z,7.53
2022-09-23T02:16:31.001Z,7.59
2022-09-23T02:18:57.903Z,7.27
2022-09-23T02:21:24.224Z,7.53
2022-09-23T02:23:50.579Z,7.39
2022-09-23T02:26:17.337Z,7.38
2022-09-23T02:28:43.666Z,7.27
2022-09-23T02:31:10.060Z,7.32
2022-09-23T02:33:36.618Z,7.44
2022-09-23T02:36:03.967Z,7.40
2022-09-23T02:38:30.380Z,7.56
2022-09-23T02:40:56.937Z,7.18
2022-09-23T02:43:23.260Z,6.90
2022-09-23T02:45:49.753Z,7.02
2022-09-23T02:48:16.400Z,7.00
2022-09-23T02:50:42.784Z,7.08
2022-09-23T02:53:09.130Z,7.07
2022-09-23T02:55:35.746Z,6.77
2022-09-23T02:58:02.085Z,6.61
2022-09-23T03:00:28.413Z,6.64
2022-09-23T03:02:54.820Z,6.62
2022-09-23T03:05:21.180Z,6.49
2022-09-23T03:07:47.676Z,6.84
2022-09-23T03:10:14.765Z,7.01
2022-09-23T03:12:41.100Z,7.05
2022-09-23T03:15:07.441Z,7.18
2022-09-23T03:17:34.082Z,7.01
2022-09-23T03:20:00.402Z,6.84
2022-09-23T03:22:26.738Z,7.00
2022-09-23T03:24:54.264Z,7.20
2022-09-23T03:27:20.718Z,6.92
2022-09-23T03:29:47.139Z,6.69
2022-09-23T03:32:13.833Z,6.54
2022-09-23T03:34:40.216Z,6.74
2022-09-23T03:37:06.760Z,6.69
2022-09-23T03:39:33.241Z,6.58
2022-09-23T03:41:59.675Z,6.78
2022-09-23T03:44:25.986Z,6.52
2022-09-23T03:46:52.433Z,6.71
2022-09-23T03:49:18.841Z,6.17
2022-09-23T03:51:45.226Z,6.43
2022-09-23T03:54:11.668Z,6.40
2022-09-23T05:02:12.856Z,7.17
2022-09-23T05:04:39.400Z,7.14
2022-09-23T05:07:05.749Z,7.15
2022-09-23T05:09:32.174Z,7.14
2022-09-23T05:11:58.640Z,7.12
2022-09-23T05:14:25.138Z,7.16
2022-09-23T05:16:51.770Z,7.23
2022-09-23T05:19:18.113Z,7.69
2022-09-23T05:21:44.485Z,7.76
2022-09-23T05:24:11.011Z,7.58
2022-09-23T05:26:37.371Z,7.43
2022-09-23T05:29:03.942Z,7.42
2022-09-23T05:31:30.748Z,7.37
2022-09-23T05:33:57.260Z,7.31
2022-09-23T05:36:23.607Z,7.25
2022-09-23T05:38:50.247Z,7.05
2022-09-23T05:41:16.688Z,6.41
2022-09-23T05:43:43.057Z,6.62
2022-09-23T05:46:09.568Z,6.86
2022-09-23T05:48:36.010Z,6.63
2022-09-23T05:51:02.405Z,6.61
2022-09-23T05:53:28.997Z,6.28
2022-09-23T05:55:55.477Z,6.61
2022-09-23T05:58:21.858Z,6.93
2022-09-23T06:00:48.414Z,7.15
2022-09-23T06:03:15.937Z,7.27
2022-09-23T06:05:42.304Z,7.36
2022-09-23T06:08:09.255Z,7.49
2022-09-23T06:10:35.635Z,7.59
2022-09-23T06:13:02.151Z,7.66
2022-09-23T06:15:28.780Z,7.72
2022-09-23T06:17:55.165Z,7.77
2022-09-23T06:20:21.508Z,7.86
2022-09-23T06:22:52.114Z,7.92
2022-09-23T06:25:20.500Z,7.96
2022-09-23T06:27:46.855Z,8.05
2022-09-23T06:30:13.292Z,8.10
2022-09-23T06:32:40.214Z,8.13
2022-09-23T06:35:08.458Z,8.34
2022-09-23T06:37:37.067Z,8.52
2022-09-23T06:40:03.506Z,8.71
2022-09-23T06:42:30.043Z,8.80
2022-09-23T06:44:56.800Z,8.68
2022-09-23T06:47:23.209Z,8.73
2022-09-23T06:49:50.625Z,8.77
2022-09-23T06:52:17.204Z,8.80
2022-09-23T06:54:43.743Z,8.81
2022-09-23T06:57:10.364Z,8.76
2022-09-23T06:59:36.874Z,8.76
2022-09-23T07:02:03.498Z,8.83
2022-09-23T07:04:30.160Z,8.92
2022-09-23T07:06:56.848Z,9.04
2022-09-23T07:09:23.444Z,8.99
2022-09-23T07:11:49.796Z,8.82
2022-09-23T07:14:16.336Z,8.93
2022-09-23T07:16:42.786Z,9.00
2022-09-23T07:19:09.183Z,9.12
2022-09-23T07:21:35.985Z,9.19
2022-09-23T07:24:02.343Z,9.30
2022-09-23T07:26:28.916Z,9.39
2022-09-23T07:28:55.609Z,9.34
2022-09-23T07:31:35.675Z,9.38
2022-09-23T07:34:04.739Z,9.37
2022-09-23T07:36:31.219Z,9.35
2022-09-23T07:38:57.570Z,9.29
2022-09-23T07:41:24.422Z,9.34
2022-09-23T07:43:50.789Z,9.48
2022-09-23T07:46:17.349Z,9.48
2022-09-23T07:48:44.223Z,9.62
2022-09-23T07:51:10.758Z,9.76
2022-09-23T07:53:37.150Z,9.80
2022-09-23T07:56:03.627Z,9.85
2022-09-23T07:58:30.407Z,9.98
2022-09-23T08:00:56.801Z,9.97
2022-09-23T08:03:23.295Z,10.04
2022-09-23T08:05:49.766Z,10.13
2022-09-23T08:08:16.220Z,10.09
2022-09-23T08:10:43.014Z,10.05
2022-09-23T08:13:09.513Z,10.20
2022-09-23T08:15:36.133Z,10.31
2022-09-23T08:18:02.824Z,10.22
2022-09-23T08:20:29.395Z,10.25
2022-09-23T08:22:55.708Z,10.08
2022-09-23T08:25:22.795Z,10.14
2022-09-23T08:27:49.186Z,10.06
2022-09-23T08:30:15.521Z,10.21
2022-09-23T08:32:41.994Z,10.27
2022-09-23T08:35:08.581Z,10.28
2022-09-23T08:37:34.944Z,10.43
2022-09-23T08:40:01.442Z,10.48
2022-09-23T08:42:27.973Z,10.61
2022-09-23T08:44:54.304Z,10.50
2022-09-23T08:47:21.100Z,10.52
2022-09-23T08:49:47.766Z,10.60
2022-09-23T08:52:14.106Z,10.75
2022-09-23T08:54:41.411Z,10.88
2022-09-23T08:57:07.902Z,10.89
2022-09-23T08:59:34.412Z,10.82
2022-09-23T09:02:01.019Z,10.83
2022-09-23T09:04:27.396Z,10.86
2022-09-23T09:06:55.871Z,10.93
2022-09-23T09:09:26.738Z,10.94
2022-09-23T09:11:53.193Z,11.04
2022-09-23T09:14:19.615Z,10.89
2022-09-23T09:16:59.353Z,10.77
2022-09-23T09:19:26.628Z,10.86
2022-09-23T09:21:53.076Z,10.95
2022-09-23T09:24:19.684Z,11.11
2022-09-23T09:26:46.096Z,11.17
2022-09-23T09:29:31.313Z,11.33
2022-09-23T09:31:59.215Z,11.47
2022-09-23T09:34:25.664Z,11.59
2022-09-23T09:36:52.154Z,11.64
2022-09-23T09:39:21.870Z,11.75
2022-09-23T09:41:52.089Z,11.74
2022-09-23T09:44:18.759Z,11.79
2022-09-23T09:46:45.259Z,11.91
2022-09-23T09:49:11.797Z,12.06
2022-09-23T09:51:38.226Z,11.97
2022-09-23T09:54:04.795Z,11.95
2022-09-23T09:56:31.475Z,11.83
2022-09-23T09:58:58.378Z,11.66
2022-09-23T10:01:27.718Z,11.85
2022-09-23T10:03:56.950Z,11.63
2022-09-23T10:06:23.584Z,11.77
2022-09-23T10:08:51.424Z,11.40
2022-09-23T10:11:17.964Z,11.27
2022-09-23T10:13:46.762Z,11.24
2022-09-23T10:16:13.386Z,11.12
2022-09-23T10:18:40.336Z,11.48
2022-09-23T10:21:06.876Z,11.38
2022-09-23T10:23:33.376Z,11.33
2022-09-23T10:25:59.909Z,11.46
2022-09-23T10:28:26.699Z,11.49
2022-09-23T10:30:53.147Z,11.48
2022-09-23T10:33:19.761Z,11.49
2022-09-23T10:35:46.418Z,11.56
2022-09-23T10:38:12.792Z,11.73
2022-09-23T10:40:40.219Z,11.74
2022-09-23T10:43:07.041Z,11.78
2022-09-23T10:45:33.543Z,11.73
2022-09-23T10:48:00.251Z,11.69
2022-09-23T10:50:26.796Z,11.68
2022-09-23T10:52:53.314Z,11.72
2022-09-23T10:55:20.046Z,11.84
2022-09-23T10:57:46.611Z,11.90
2022-09-23T11:00:12.984Z,11.88
2022-09-23T11:02:40.047Z,11.89
2022-09-23T11:05:06.552Z,12.08
2022-09-23T11:07:37.322Z,11.90
2022-09-23T11:10:03.908Z,12.03
2022-09-23T11:12:30.349Z,12.16
2022-09-23T11:14:57.793Z,12.20
2022-09-23T11:17:24.392Z,12.18
2022-09-23T11:19:51.562Z,12.14
2022-09-23T11:22:18.009Z,12.18
2022-09-23T11:24:44.435Z,12.15
2022-09-23T11:27:11.059Z,12.38
2022-09-23T11:29:37.412Z,12.34
2022-09-23T11:32:03.941Z,12.45
2022-09-23T11:34:30.334Z,12.07
2022-09-23T11:36:56.691Z,12.14
2022-09-23T11:39:23.162Z,12.21
2022-09-23T11:41:50.657Z,12.37
2022-09-23T11:44:17.079Z,12.45
2022-09-23T11:46:43.611Z,12.56
2022-09-23T11:49:10.014Z,12.36
2022-09-23T11:51:36.380Z,12.60
2022-09-23T11:54:02.922Z,12.70
2022-09-23T11:56:35.394Z,12.69
2022-09-23T11:59:03.645Z,12.72
2022-09-23T12:01:37.237Z,12.80
2022-09-23T12:04:15.785Z,12.88
2022-09-23T12:06:45.908Z,12.54
2022-09-23T12:09:12.320Z,12.76
2022-09-23T12:11:38.742Z,11.30
2022-09-23T12:14:05.095Z,11.88
2022-09-23T12:16:31.682Z,12.47
2022-09-23T12:18:58.099Z,12.60
2022-09-23T12:21:48.770Z,12.85
2022-09-23T12:24:12.549Z,12.92
2022-09-23T12:26:41.497Z,13.14
2022-09-23T12:29:07.897Z,13.26
2022-09-23T12:31:37.541Z,13.38
2022-09-23T12:34:07.602Z,13.38
2022-09-23T12:36:34.323Z,13.49
2022-09-23T12:39:00.770Z,13.53
2022-09-23T12:41:27.202Z,13.50
2022-09-23T12:43:53.946Z,13.72
2022-09-23T12:46:20.358Z,13.76
2022-09-23T12:48:46.989Z,13.80
2022-09-23T12:51:13.682Z,13.84
2022-09-23T12:53:40.395Z,13.84
2022-09-23T12:56:07.322Z,13.94
2022-09-23T12:58:34.031Z,13.97
2022-09-23T13:01:00.941Z,14.16
2022-09-23T13:03:27.423Z,14.24
2022-09-23T13:05:54.707Z,14.37
2022-09-23T13:08:21.886Z,14.38
2022-09-23T13:10:48.258Z,14.41
2022-09-23T13:13:15.036Z,14.49
2022-09-23T13:15:41.375Z,14.53
2022-09-23T13:18:07.906Z,14.66
2022-09-23T13:20:34.565Z,14.56
2022-09-23T13:23:06.327Z,14.52
2022-09-23T13:25:32.946Z,14.58
2022-09-23T13:27:59.784Z,14.72
2022-09-23T13:30:26.843Z,14.68
2022-09-23T13:32:53.395Z,14.62
2022-09-23T13:35:20.072Z,14.78
2022-09-23T13:37:46.476Z,14.90
2022-09-23T13:40:12.916Z,14.91
2022-09-23T13:42:39.675Z,14.97
2022-09-23T13:45:06.563Z,15.04
2022-09-23T13:47:33.089Z,15.14
2022-09-23T13:49:59.747Z,15.08
2022-09-23T13:52:26.279Z,15.20
2022-09-23T13:54:52.637Z,15.27
2022-09-23T13:57:19.029Z,15.34
2022-09-23T13:59:53.350Z,15.50
2022-09-23T14:02:22.074Z,15.64
2022-09-23T14:04:48.463Z,15.70
2022-09-23T14:07:15.171Z,15.71
2022-09-23T14:09:42.149Z,15.80
2022-09-23T14:12:08.759Z,15.87
2022-09-23T14:14:35.199Z,15.89
2022-09-23T14:17:01.551Z,15.97
2022-09-23T14:19:28.210Z,16.03
2022-09-23T14:21:54.830Z,16.05
2022-09-23T14:24:21.320Z,16.07
2022-09-23T14:26:47.721Z,16.20
2022-09-23T14:29:14.208Z,16.27
2022-09-23T14:31:41.088Z,16.21
2022-09-23T14:34:07.558Z,16.30
2022-09-23T14:36:34.281Z,16.26
2022-09-23T14:39:00.976Z,16.32
2022-09-23T14:41:27.327Z,16.44
2022-09-23T14:43:53.760Z,16.53
2022-09-23T14:46:20.406Z,16.53
2022-09-23T14:48:46.832Z,16.61
2022-09-23T14:51:16.917Z,16.68
2022-09-23T14:53:43.686Z,16.63
2022-09-23T14:56:10.125Z,16.69
2022-09-23T14:58:36.518Z,16.68
2022-09-23T15:01:03.082Z,16.71
2022-09-23T15:03:29.776Z,16.70
2022-09-23T15:05:57.283Z,16.73
2022-09-23T15:08:23.650Z,16.82
2022-09-23T15:10:50.219Z,16.79
2022-09-23T15:13:16.594Z,16.76
2022-09-23T15:15:43.034Z,16.82
2022-09-23T15:18:09.678Z,16.85
2022-09-23T15:20:36.094Z,16.76
2022-09-23T15:23:02.583Z,16.71
2022-09-23T15:25:29.115Z,16.78
2022-09-23T15:27:57.651Z,16.81
2022-09-23T15:30:24.170Z,16.71
2022-09-23T15:32:50.740Z,16.67
2022-09-23T15:35:17.098Z,16.55
2022-09-23T15:37:43.670Z,16.51
2022-09-23T15:40:10.277Z,16.46
2022-09-23T15:42:36.961Z,16.40
2022-09-23T15:47:31.212Z,16.08
2022-09-23T15:49:57.715Z,16.09
2022-09-23T15:52:24.344Z,16.08
2022-09-23T15:54:50.775Z,16.10
2022-09-23T15:57:17.217Z,16.03
2022-09-23T15:59:43.818Z,16.13
2022-09-23T16:02:11.464Z,16.08
2022-09-23T16:04:37.894Z,15.98
2022-09-23T16:07:04.594Z,15.93
2022-09-23T16:09:31.024Z,15.86
2022-09-23T16:11:57.382Z,15.84
2022-09-23T16:14:23.939Z,15.85
2022-09-23T16:16:50.456Z,15.81
2022-09-23T16:19:17.063Z,15.76
2022-09-23T16:21:43.679Z,15.71
2022-09-23T16:24:10.030Z,15.68
2022-09-23T16:26:36.380Z,15.65
2022-09-23T16:42:43.438Z,15.52
2022-09-23T16:45:09.887Z,15.54
2022-09-23T16:47:36.264Z,15.49
2022-09-23T16:50:02.803Z,15.42
2022-09-23T16:52:29.406Z,15.38
2022-09-23T16:54:55.821Z,15.45
2022-09-23T16:57:22.852Z,15.53
2022-09-23T16:59:49.219Z,15.47
2022-09-23T17:02:15.752Z,15.41
2022-09-23T17:04:44.104Z,15.35
2022-09-23T17:07:10.445Z,15.32
2022-09-23T17:09:36.791Z,15.30
2022-09-23T17:12:03.230Z,15.29
2022-09-23T17:14:30.044Z,15.24
2022-09-23T17:16:56.482Z,15.23
2022-09-23T17:19:22.915Z,15.17
2022-09-23T17:21:49.285Z,15.10
2022-09-23T17:24:15.641Z,14.81
2022-09-23T17:26:42.263Z,14.65
2022-09-23T17:29:08.886Z,14.74
2022-09-23T17:31:35.392Z,14.79
2022-09-23T17:34:02.336Z,14.46
2022-09-23T17:36:28.781Z,14.37
2022-09-23T17:38:55.228Z,14.43
2022-09-23T17:41:22.174Z,14.19
2022-09-23T17:43:48.601Z,14.03
2022-09-23T17:46:17.495Z,14.19
2022-09-23T17:48:46.738Z,14.23
2022-09-23T17:51:13.077Z,14.06
2022-09-23T17:53:39.448Z,14.07
2022-09-23T17:56:06.577Z,14.18
2022-09-23T17:58:32.909Z,14.29
2022-09-23T18:00:59.405Z,14.14
2022-09-23T18:03:26.305Z,13.93
2022-09-23T18:05:52.740Z,13.80
2022-09-23T18:08:19.180Z,13.88
2022-09-23T18:10:45.719Z,13.52
2022-09-23T18:13:12.270Z,13.59
2022-09-23T18:15:38.743Z,13.58
2022-09-23T18:18:05.506Z,13.51
2022-09-23T18:20:31.900Z,13.68
2022-09-23T18:22:58.235Z,13.71
2022-09-23T18:25:38.837Z,13.76
2022-09-23T18:28:06.299Z,13.37
2022-09-23T18:30:32.847Z,13.38
2022-09-23T18:32:59.780Z,13.32
2022-09-23T18:35:26.616Z,13.34
2022-09-23T18:37:53.158Z,13.47
2022-09-23T18:40:19.644Z,13.52
2022-09-23T18:42:46.203Z,13.35
2022-09-23T18:45:12.909Z,13.49
2022-09-23T18:47:40.314Z,13.38
2022-09-23T18:50:06.708Z,13.43
2022-09-23T18:52:33.375Z,12.97
2022-09-23T18:54:59.795Z,12.93
2022-09-23T18:57:26.218Z,13.06
2022-09-23T18:59:52.977Z,13.17
2022-09-23T19:02:19.673Z,13.13
2022-09-23T19:04:46.096Z,13.18
2022-09-23T19:07:12.698Z,13.04
2022-09-23T19:09:39.613Z,13.14
2022-09-23T19:12:05.995Z,13.11
2022-09-23T19:14:32.432Z,12.99
2022-09-23T19:16:58.882Z,12.69
2022-09-23T19:19:25.451Z,12.79
2022-09-23T19:21:52.167Z,12.76
2022-09-23T19:24:18.589Z,12.83
2022-09-23T19:26:45.038Z,12.72
2022-09-23T19:29:11.561Z,12.75
2022-09-23T19:31:37.985Z,12.73
2022-09-23T19:34:06.794Z,12.78
2022-09-23T19:36:33.787Z,12.42
2022-09-23T19:39:00.153Z,12.41
2022-09-23T19:41:27.529Z,12.21
2022-09-23T19:43:54.281Z,12.20
2022-09-23T19:46:20.685Z,12.22
2022-09-23T19:48:47.060Z,12.35
2022-09-23T19:51:13.496Z,12.40
2022-09-23T19:53:39.904Z,12.40
2022-09-23T19:56:06.516Z,12.44
2022-09-23T19:58:32.943Z,12.47
2022-09-23T20:00:59.350Z,12.18
2022-09-23T20:03:25.742Z,12.07
2022-09-23T20:05:52.322Z,12.20
2022-09-23T20:08:19.153Z,12.28
2022-09-23T20:10:45.523Z,12.22
2022-09-23T20:13:12.626Z,12.31
2022-09-23T20:15:39.055Z,12.35
2022-09-23T20:18:05.450Z,12.21
2022-09-23T20:20:31.924Z,12.20
2022-09-23T20:22:58.247Z,12.26
2022-09-23T20:25:24.941Z,12.09
2022-09-23T20:27:51.387Z,12.09
2022-09-23T20:30:18.806Z,12.16
2022-09-23T20:32:45.151Z,12.12
2022-09-23T20:35:11.571Z,12.15
2022-09-23T20:37:37.969Z,11.85
2022-09-23T20:40:04.365Z,11.82
2022-09-23T20:42:30.864Z,11.46
2022-09-23T20:44:57.412Z,11.70
2022-09-23T20:47:23.716Z,11.74
2022-09-23T20:49:50.274Z,11.81
2022-09-23T20:52:16.665Z,11.84
2022-09-23T20:54:43.021Z,11.77
2022-09-23T20:57:09.485Z,11.67
2022-09-23T20:59:35.877Z,11.70
2022-09-23T21:02:02.506Z,11.68
2022-09-23T21:04:29.082Z,11.70
2022-09-23T21:06:55.497Z,11.58
2022-09-23T21:09:22.328Z,11.45
2022-09-23T21:11:49.028Z,11.41
2022-09-23T21:14:15.443Z,11.43
2022-09-23T21:16:41.910Z,11.35
2022-09-23T21:19:08.651Z,11.28
2022-09-23T21:21:35.129Z,11.33
2022-09-23T21:24:23.924Z,11.27
2022-09-23T21:26:48.276Z,11.28
2022-09-23T21:29:14.718Z,11.35
2022-09-23T21:31:41.348Z,11.36
2022-09-23T21:34:07.987Z,11.42
2022-09-23T21:36:34.546Z,11.44
2022-09-23T21:39:00.909Z,11.46
2022-09-23T21:41:27.535Z,11.42
2022-09-23T21:43:53.873Z,11.34
2022-09-23T21:46:20.392Z,11.35
2022-09-23T21:48:47.190Z,11.25
2022-09-23T21:51:14.628Z,11.27
2022-09-23T21:53:41.022Z,11.30
2022-09-23T21:56:07.376Z,11.26
2022-09-23T21:58:33.739Z,11.16
2022-09-23T22:01:00.307Z,11.02
2022-09-23T22:03:27.013Z,11.07
2022-09-23T22:05:53.383Z,11.08
2022-09-23T22:08:19.792Z,11.05
2022-09-23T22:10:46.376Z,10.82
2022-09-23T22:13:13.804Z,10.67
2022-09-23T22:15:40.217Z,10.77
2022-09-23T22:18:07.110Z,10.84
2022-09-23T22:20:33.790Z,10.90
2022-09-23T22:23:00.155Z,10.94
2022-09-23T22:25:26.576Z,10.85
2022-09-23T22:27:53.136Z,10.89
2022-09-23T22:30:19.654Z,10.90
2022-09-23T22:32:46.057Z,10.77
2022-09-23T22:35:12.490Z,10.80
2022-09-23T22:37:38.852Z,10.80
2022-09-23T22:40:09.508Z,10.76
2022-09-23T22:42:35.938Z,10.78
2022-09-23T22:45:02.614Z,10.16
2022-09-23T22:47:29.041Z,10.32
2022-09-23T22:49:57.048Z,10.46
2022-09-23T22:52:23.809Z,10.51
2022-09-23T22:54:50.534Z,10.47
2022-09-23T22:57:17.026Z,10.49
2022-09-23T22:59:43.446Z,10.56
2022-09-23T23:02:10.244Z,10.58
2022-09-23T23:04:36.774Z,10.17
2022-09-23T23:07:03.129Z,10.28
2022-09-23T23:09:30.395Z,10.37
2022-09-23T23:11:56.983Z,10.11
2022-09-23T23:14:23.438Z,10.05
2022-09-23T23:16:50.352Z,10.15
2022-09-23T23:19:16.814Z,10.06
2022-09-23T23:21:43.356Z,9.93
2022-09-23T23:24:10.119Z,9.44
2022-09-23T23:26:36.484Z,9.62
2022-09-23T23:29:02.871Z,9.76
2022-09-23T23:31:29.613Z,9.71
2022-09-23T23:33:56.140Z,9.85
2022-09-23T23:36:22.594Z,9.83
2022-09-23T23:38:49.250Z,9.85
2022-09-23T23:41:15.726Z,9.90
2022-09-23T23:43:42.193Z,9.73
2022-09-23T23:46:09.238Z,9.66
2022-09-23T23:48:35.686Z,9.68
2022-09-23T23:51:02.182Z,9.70
2022-09-23T23:53:28.672Z,9.56
2022-09-23T23:55:55.003Z,9.55
2022-09-23T23:58:21.320Z,9.06
